sensor_id;sensor_type;location;lat;lon;timestamp;P1;durP1;ratioP1;P2;durP2;ratioP2
80758;SDS011;70150;45.582;10.178;2023-11-21T00:00:29;50.80;;;26.17;;
80758;SDS011;70150;45.582;10.178;2023-11-21T00:02:55;46.67;;;25.02;;
80758;SDS011;70150;45.582;10.178;2023-11-21T00:05:20;54.45;;;26.95;;
80758;SDS011;70150;45.582;10.178;2023-11-21T00:07:48;45.00;;;23.92;;
80758;SDS011;70150;45.582;10.178;2023-11-21T00:10:14;40.90;;;21.85;;
80758;SDS011;70150;45.582;10.178;2023-11-21T00:12:41;37.72;;;21.38;;
80758;SDS011;70150;45.582;10.178;2023-11-21T00:15:07;40.83;;;21.77;;
80758;SDS011;70150;45.582;10.178;2023-11-21T00:17:37;44.08;;;21.52;;
80758;SDS011;70150;45.582;10.178;2023-11-21T00:20:03;38.55;;;21.40;;
80758;SDS011;70150;45.582;10.178;2023-11-21T00:22:32;44.15;;;22.95;;
80758;SDS011;70150;45.582;10.178;2023-11-21T00:24:59;41.58;;;21.80;;
80758;SDS011;70150;45.582;10.178;2023-11-21T00:27:29;40.35;;;21.98;;
80758;SDS011;70150;45.582;10.178;2023-11-21T00:29:55;43.17;;;22.63;;
80758;SDS011;70150;45.582;10.178;2023-11-21T00:32:21;44.22;;;24.70;;
80758;SDS011;70150;45.582;10.178;2023-11-21T00:34:46;45.60;;;23.13;;
80758;SDS011;70150;45.582;10.178;2023-11-21T00:37:12;44.83;;;23.58;;
80758;SDS011;70150;45.582;10.178;2023-11-21T00:39:38;41.10;;;22.65;;
80758;SDS011;70150;45.582;10.178;2023-11-21T00:42:03;41.22;;;22.05;;
80758;SDS011;70150;45.582;10.178;2023-11-21T00:44:30;43.22;;;23.08;;
80758;SDS011;70150;45.582;10.178;2023-11-21T00:46:55;41.40;;;23.70;;
80758;SDS011;70150;45.582;10.178;2023-11-21T00:49:21;41.92;;;22.70;;
80758;SDS011;70150;45.582;10.178;2023-11-21T00:51:47;37.75;;;21.83;;
80758;SDS011;70150;45.582;10.178;2023-11-21T00:54:15;42.58;;;22.10;;
80758;SDS011;70150;45.582;10.178;2023-11-21T00:56:42;38.35;;;21.27;;
80758;SDS011;70150;45.582;10.178;2023-11-21T00:59:13;38.97;;;21.50;;
80758;SDS011;70150;45.582;10.178;2023-11-21T01:01:38;37.95;;;20.52;;
80758;SDS011;70150;45.582;10.178;2023-11-21T01:04:04;40.78;;;22.92;;
80758;SDS011;70150;45.582;10.178;2023-11-21T01:06:32;42.20;;;22.95;;
80758;SDS011;70150;45.582;10.178;2023-11-21T01:08:59;40.85;;;22.40;;
80758;SDS011;70150;45.582;10.178;2023-11-21T01:11:25;42.05;;;22.50;;
80758;SDS011;70150;45.582;10.178;2023-11-21T01:13:51;38.85;;;21.77;;
80758;SDS011;70150;45.582;10.178;2023-11-21T01:16:18;39.40;;;21.52;;
80758;SDS011;70150;45.582;10.178;2023-11-21T01:18:44;40.15;;;21.55;;
80758;SDS011;70150;45.582;10.178;2023-11-21T01:21:09;38.17;;;20.13;;
80758;SDS011;70150;45.582;10.178;2023-11-21T01:23:35;36.08;;;20.58;;
80758;SDS011;70150;45.582;10.178;2023-11-21T01:26:01;40.92;;;20.27;;
80758;SDS011;70150;45.582;10.178;2023-11-21T01:28:27;38.53;;;20.77;;
80758;SDS011;70150;45.582;10.178;2023-11-21T01:30:54;36.33;;;20.13;;
80758;SDS011;70150;45.582;10.178;2023-11-21T01:33:21;38.38;;;20.35;;
80758;SDS011;70150;45.582;10.178;2023-11-21T01:35:50;39.50;;;22.25;;
80758;SDS011;70150;45.582;10.178;2023-11-21T01:38:16;36.97;;;21.55;;
80758;SDS011;70150;45.582;10.178;2023-11-21T01:40:45;39.80;;;20.67;;
80758;SDS011;70150;45.582;10.178;2023-11-21T01:43:13;36.17;;;19.95;;
80758;SDS011;70150;45.582;10.178;2023-11-21T01:45:38;36.17;;;20.27;;
80758;SDS011;70150;45.582;10.178;2023-11-21T01:48:04;37.85;;;20.35;;
80758;SDS011;70150;45.582;10.178;2023-11-21T01:52:58;40.70;;;20.98;;
80758;SDS011;70150;45.582;10.178;2023-11-21T01:55:25;38.72;;;21.48;;
80758;SDS011;70150;45.582;10.178;2023-11-21T01:57:52;37.03;;;19.85;;
80758;SDS011;70150;45.582;10.178;2023-11-21T02:00:18;35.92;;;18.80;;
80758;SDS011;70150;45.582;10.178;2023-11-21T02:05:11;37.88;;;19.90;;
80758;SDS011;70150;45.582;10.178;2023-11-21T02:07:39;37.75;;;21.05;;
80758;SDS011;70150;45.582;10.178;2023-11-21T02:10:06;38.28;;;20.38;;
80758;SDS011;70150;45.582;10.178;2023-11-21T02:12:33;39.55;;;20.70;;
80758;SDS011;70150;45.582;10.178;2023-11-21T02:20:00;38.88;;;20.70;;
80758;SDS011;70150;45.582;10.178;2023-11-21T02:22:26;37.95;;;19.55;;
80758;SDS011;70150;45.582;10.178;2023-11-21T02:24:56;38.95;;;19.95;;
80758;SDS011;70150;45.582;10.178;2023-11-21T02:27:23;39.53;;;21.38;;
80758;SDS011;70150;45.582;10.178;2023-11-21T02:29:49;40.60;;;22.02;;
80758;SDS011;70150;45.582;10.178;2023-11-21T02:32:15;36.42;;;20.90;;
80758;SDS011;70150;45.582;10.178;2023-11-21T02:34:42;37.30;;;20.67;;
80758;SDS011;70150;45.582;10.178;2023-11-21T02:37:08;40.90;;;22.10;;
80758;SDS011;70150;45.582;10.178;2023-11-21T02:39:35;38.92;;;20.70;;
80758;SDS011;70150;45.582;10.178;2023-11-21T02:42:00;36.60;;;21.10;;
80758;SDS011;70150;45.582;10.178;2023-11-21T02:44:26;39.35;;;21.10;;
80758;SDS011;70150;45.582;10.178;2023-11-21T02:46:52;36.80;;;20.73;;
80758;SDS011;70150;45.582;10.178;2023-11-21T02:49:17;37.92;;;20.17;;
80758;SDS011;70150;45.582;10.178;2023-11-21T02:51:45;39.45;;;20.77;;
80758;SDS011;70150;45.582;10.178;2023-11-21T02:54:11;38.17;;;20.50;;
80758;SDS011;70150;45.582;10.178;2023-11-21T02:56:36;40.35;;;20.30;;
80758;SDS011;70150;45.582;10.178;2023-11-21T02:59:02;37.72;;;20.23;;
80758;SDS011;70150;45.582;10.178;2023-11-21T03:01:28;39.67;;;22.05;;
80758;SDS011;70150;45.582;10.178;2023-11-21T03:03:54;40.47;;;21.70;;
80758;SDS011;70150;45.582;10.178;2023-11-21T03:06:20;36.45;;;20.65;;
80758;SDS011;70150;45.582;10.178;2023-11-21T03:08:46;37.15;;;19.92;;
80758;SDS011;70150;45.582;10.178;2023-11-21T03:11:12;38.22;;;20.35;;
80758;SDS011;70150;45.582;10.178;2023-11-21T03:13:40;37.35;;;20.25;;
80758;SDS011;70150;45.582;10.178;2023-11-21T03:18:33;39.08;;;19.52;;
80758;SDS011;70150;45.582;10.178;2023-11-21T03:20:59;37.20;;;20.75;;
80758;SDS011;70150;45.582;10.178;2023-11-21T03:23:25;37.70;;;20.83;;
80758;SDS011;70150;45.582;10.178;2023-11-21T03:25:50;38.95;;;20.35;;
80758;SDS011;70150;45.582;10.178;2023-11-21T03:28:16;42.47;;;22.10;;
80758;SDS011;70150;45.582;10.178;2023-11-21T03:30:42;38.88;;;21.13;;
80758;SDS011;70150;45.582;10.178;2023-11-21T03:33:10;39.22;;;21.05;;
80758;SDS011;70150;45.582;10.178;2023-11-21T03:35:35;42.35;;;23.63;;
80758;SDS011;70150;45.582;10.178;2023-11-21T03:38:01;43.53;;;23.77;;
80758;SDS011;70150;45.582;10.178;2023-11-21T03:40:27;41.97;;;23.45;;
80758;SDS011;70150;45.582;10.178;2023-11-21T03:42:56;39.40;;;22.92;;
80758;SDS011;70150;45.582;10.178;2023-11-21T03:45:22;45.05;;;23.30;;
80758;SDS011;70150;45.582;10.178;2023-11-21T03:47:48;44.40;;;23.92;;
80758;SDS011;70150;45.582;10.178;2023-11-21T03:50:14;41.25;;;22.23;;
80758;SDS011;70150;45.582;10.178;2023-11-21T03:52:39;42.95;;;22.98;;
80758;SDS011;70150;45.582;10.178;2023-11-21T03:55:05;41.83;;;22.88;;
80758;SDS011;70150;45.582;10.178;2023-11-21T03:57:33;45.67;;;23.17;;
80758;SDS011;70150;45.582;10.178;2023-11-21T04:00:01;40.30;;;22.48;;
80758;SDS011;70150;45.582;10.178;2023-11-21T04:02:29;41.63;;;21.45;;
80758;SDS011;70150;45.582;10.178;2023-11-21T04:04:56;36.15;;;20.13;;
80758;SDS011;70150;45.582;10.178;2023-11-21T04:07:22;42.17;;;21.23;;
80758;SDS011;70150;45.582;10.178;2023-11-21T04:09:48;39.80;;;20.20;;
80758;SDS011;70150;45.582;10.178;2023-11-21T04:12:13;39.15;;;20.73;;
80758;SDS011;70150;45.582;10.178;2023-11-21T04:14:39;39.70;;;21.20;;
80758;SDS011;70150;45.582;10.178;2023-11-21T04:17:04;41.85;;;20.92;;
80758;SDS011;70150;45.582;10.178;2023-11-21T04:19:31;38.67;;;19.52;;
80758;SDS011;70150;45.582;10.178;2023-11-21T04:21:59;37.60;;;20.38;;
80758;SDS011;70150;45.582;10.178;2023-11-21T04:24:25;39.05;;;20.92;;
80758;SDS011;70150;45.582;10.178;2023-11-21T04:26:51;30.50;;;16.75;;
80758;SDS011;70150;45.582;10.178;2023-11-21T04:29:16;39.40;;;18.08;;
80758;SDS011;70150;45.582;10.178;2023-11-21T04:31:42;33.55;;;17.42;;
80758;SDS011;70150;45.582;10.178;2023-11-21T04:34:08;35.00;;;17.70;;
80758;SDS011;70150;45.582;10.178;2023-11-21T04:36:33;31.50;;;16.23;;
80758;SDS011;70150;45.582;10.178;2023-11-21T04:39:00;31.25;;;15.95;;
80758;SDS011;70150;45.582;10.178;2023-11-21T04:41:26;34.63;;;16.48;;
80758;SDS011;70150;45.582;10.178;2023-11-21T04:43:51;31.98;;;15.90;;
80758;SDS011;70150;45.582;10.178;2023-11-21T04:46:17;27.58;;;15.15;;
80758;SDS011;70150;45.582;10.178;2023-11-21T04:48:43;30.75;;;16.63;;
80758;SDS011;70150;45.582;10.178;2023-11-21T04:51:09;31.42;;;15.48;;
80758;SDS011;70150;45.582;10.178;2023-11-21T04:56:02;34.25;;;15.68;;
80758;SDS011;70150;45.582;10.178;2023-11-21T04:58:28;32.45;;;15.95;;
80758;SDS011;70150;45.582;10.178;2023-11-21T05:00:54;33.47;;;15.48;;
80758;SDS011;70150;45.582;10.178;2023-11-21T05:03:19;35.78;;;16.27;;
80758;SDS011;70150;45.582;10.178;2023-11-21T05:05:45;35.28;;;16.13;;
80758;SDS011;70150;45.582;10.178;2023-11-21T05:08:11;32.65;;;16.33;;
80758;SDS011;70150;45.582;10.178;2023-11-21T05:10:39;38.55;;;17.33;;
80758;SDS011;70150;45.582;10.178;2023-11-21T05:13:04;31.15;;;15.68;;
80758;SDS011;70150;45.582;10.178;2023-11-21T05:15:35;36.58;;;16.83;;
80758;SDS011;70150;45.582;10.178;2023-11-21T05:18:01;32.75;;;15.63;;
80758;SDS011;70150;45.582;10.178;2023-11-21T05:20:29;33.65;;;16.25;;
80758;SDS011;70150;45.582;10.178;2023-11-21T05:22:54;31.63;;;16.50;;
80758;SDS011;70150;45.582;10.178;2023-11-21T05:25:20;30.83;;;15.85;;
80758;SDS011;70150;45.582;10.178;2023-11-21T05:27:46;35.97;;;16.23;;
80758;SDS011;70150;45.582;10.178;2023-11-21T05:30:13;32.65;;;16.08;;
80758;SDS011;70150;45.582;10.178;2023-11-21T05:32:39;32.80;;;16.33;;
80758;SDS011;70150;45.582;10.178;2023-11-21T05:35:09;34.55;;;16.50;;
80758;SDS011;70150;45.582;10.178;2023-11-21T05:37:40;34.08;;;16.48;;
80758;SDS011;70150;45.582;10.178;2023-11-21T05:40:06;35.28;;;17.10;;
80758;SDS011;70150;45.582;10.178;2023-11-21T05:42:33;30.42;;;15.85;;
80758;SDS011;70150;45.582;10.178;2023-11-21T05:44:59;34.35;;;16.27;;
80758;SDS011;70150;45.582;10.178;2023-11-21T05:47:35;31.25;;;16.48;;
80758;SDS011;70150;45.582;10.178;2023-11-21T05:50:05;36.00;;;16.65;;
80758;SDS011;70150;45.582;10.178;2023-11-21T05:52:36;34.40;;;17.88;;
80758;SDS011;70150;45.582;10.178;2023-11-21T05:57:30;32.42;;;16.05;;
80758;SDS011;70150;45.582;10.178;2023-11-21T05:59:55;33.28;;;16.63;;
80758;SDS011;70150;45.582;10.178;2023-11-21T06:02:21;33.83;;;16.80;;
80758;SDS011;70150;45.582;10.178;2023-11-21T06:04:46;37.58;;;17.05;;
80758;SDS011;70150;45.582;10.178;2023-11-21T06:07:12;32.88;;;16.92;;
80758;SDS011;70150;45.582;10.178;2023-11-21T06:09:38;35.00;;;17.10;;
80758;SDS011;70150;45.582;10.178;2023-11-21T06:12:04;36.97;;;17.17;;
80758;SDS011;70150;45.582;10.178;2023-11-21T06:14:30;32.75;;;16.15;;
80758;SDS011;70150;45.582;10.178;2023-11-21T06:16:58;34.35;;;16.15;;
80758;SDS011;70150;45.582;10.178;2023-11-21T06:19:24;32.90;;;16.85;;
80758;SDS011;70150;45.582;10.178;2023-11-21T06:21:49;33.55;;;15.93;;
80758;SDS011;70150;45.582;10.178;2023-11-21T06:24:15;39.85;;;17.45;;
80758;SDS011;70150;45.582;10.178;2023-11-21T06:26:41;35.78;;;16.73;;
80758;SDS011;70150;45.582;10.178;2023-11-21T06:29:06;34.47;;;15.25;;
80758;SDS011;70150;45.582;10.178;2023-11-21T06:31:32;33.03;;;16.52;;
80758;SDS011;70150;45.582;10.178;2023-11-21T06:33:58;33.85;;;16.10;;
80758;SDS011;70150;45.582;10.178;2023-11-21T06:36:24;32.70;;;15.80;;
80758;SDS011;70150;45.582;10.178;2023-11-21T06:38:51;32.97;;;15.77;;
80758;SDS011;70150;45.582;10.178;2023-11-21T06:41:17;29.00;;;15.27;;
80758;SDS011;70150;45.582;10.178;2023-11-21T06:43:43;34.17;;;15.88;;
80758;SDS011;70150;45.582;10.178;2023-11-21T06:46:11;29.83;;;15.07;;
80758;SDS011;70150;45.582;10.178;2023-11-21T06:48:40;28.60;;;15.77;;
80758;SDS011;70150;45.582;10.178;2023-11-21T06:51:07;33.35;;;15.65;;
80758;SDS011;70150;45.582;10.178;2023-11-21T06:53:36;29.75;;;15.07;;
80758;SDS011;70150;45.582;10.178;2023-11-21T06:56:02;34.35;;;16.08;;
80758;SDS011;70150;45.582;10.178;2023-11-21T06:58:28;36.15;;;15.60;;
80758;SDS011;70150;45.582;10.178;2023-11-21T07:00:54;34.65;;;15.93;;
80758;SDS011;70150;45.582;10.178;2023-11-21T07:03:20;32.33;;;15.95;;
80758;SDS011;70150;45.582;10.178;2023-11-21T07:05:46;31.42;;;15.95;;
80758;SDS011;70150;45.582;10.178;2023-11-21T07:08:11;29.83;;;15.32;;
80758;SDS011;70150;45.582;10.178;2023-11-21T07:10:37;30.58;;;15.75;;
80758;SDS011;70150;45.582;10.178;2023-11-21T07:13:03;31.58;;;15.15;;
80758;SDS011;70150;45.582;10.178;2023-11-21T07:15:29;32.22;;;16.05;;
80758;SDS011;70150;45.582;10.178;2023-11-21T07:17:54;30.77;;;15.48;;
80758;SDS011;70150;45.582;10.178;2023-11-21T07:20:20;32.53;;;15.38;;
80758;SDS011;70150;45.582;10.178;2023-11-21T07:22:46;35.25;;;15.85;;
80758;SDS011;70150;45.582;10.178;2023-11-21T07:25:12;36.67;;;16.08;;
80758;SDS011;70150;45.582;10.178;2023-11-21T07:27:37;33.60;;;15.43;;
80758;SDS011;70150;45.582;10.178;2023-11-21T07:30:03;30.50;;;14.73;;
80758;SDS011;70150;45.582;10.178;2023-11-21T07:34:56;29.08;;;13.68;;
80758;SDS011;70150;45.582;10.178;2023-11-21T07:37:24;31.85;;;14.05;;
80758;SDS011;70150;45.582;10.178;2023-11-21T07:39:51;30.85;;;14.95;;
80758;SDS011;70150;45.582;10.178;2023-11-21T07:42:21;30.15;;;14.80;;
80758;SDS011;70150;45.582;10.178;2023-11-21T07:44:49;29.80;;;14.13;;
80758;SDS011;70150;45.582;10.178;2023-11-21T07:47:15;29.55;;;14.85;;
80758;SDS011;70150;45.582;10.178;2023-11-21T07:49:41;32.42;;;16.48;;
80758;SDS011;70150;45.582;10.178;2023-11-21T07:52:09;35.83;;;17.23;;
80758;SDS011;70150;45.582;10.178;2023-11-21T07:54:37;37.80;;;18.65;;
80758;SDS011;70150;45.582;10.178;2023-11-21T07:57:03;39.17;;;18.55;;
80758;SDS011;70150;45.582;10.178;2023-11-21T07:59:29;38.47;;;18.20;;
80758;SDS011;70150;45.582;10.178;2023-11-21T08:01:55;41.42;;;18.25;;
80758;SDS011;70150;45.582;10.178;2023-11-21T08:04:23;30.30;;;13.80;;
80758;SDS011;70150;45.582;10.178;2023-11-21T08:06:49;25.77;;;13.60;;
80758;SDS011;70150;45.582;10.178;2023-11-21T08:09:15;26.80;;;12.50;;
80758;SDS011;70150;45.582;10.178;2023-11-21T08:11:42;28.27;;;13.38;;
80758;SDS011;70150;45.582;10.178;2023-11-21T08:14:08;27.23;;;13.25;;
80758;SDS011;70150;45.582;10.178;2023-11-21T08:16:33;25.85;;;13.52;;
80758;SDS011;70150;45.582;10.178;2023-11-21T08:18:59;32.72;;;15.10;;
80758;SDS011;70150;45.582;10.178;2023-11-21T08:21:25;30.85;;;15.63;;
80758;SDS011;70150;45.582;10.178;2023-11-21T08:23:54;30.73;;;14.60;;
80758;SDS011;70150;45.582;10.178;2023-11-21T08:26:21;27.33;;;13.70;;
80758;SDS011;70150;45.582;10.178;2023-11-21T08:28:47;30.80;;;14.88;;
80758;SDS011;70150;45.582;10.178;2023-11-21T08:31:13;29.27;;;14.52;;
80758;SDS011;70150;45.582;10.178;2023-11-21T08:33:39;29.20;;;14.95;;
80758;SDS011;70150;45.582;10.178;2023-11-21T08:38:34;33.28;;;15.27;;
80758;SDS011;70150;45.582;10.178;2023-11-21T08:41:04;32.50;;;14.77;;
80758;SDS011;70150;45.582;10.178;2023-11-21T08:43:34;28.13;;;14.40;;
80758;SDS011;70150;45.582;10.178;2023-11-21T08:46:01;26.27;;;13.52;;
80758;SDS011;70150;45.582;10.178;2023-11-21T08:48:26;29.90;;;14.15;;
80758;SDS011;70150;45.582;10.178;2023-11-21T08:50:54;27.08;;;14.07;;
80758;SDS011;70150;45.582;10.178;2023-11-21T08:53:20;27.95;;;14.25;;
80758;SDS011;70150;45.582;10.178;2023-11-21T08:55:46;29.95;;;14.55;;
80758;SDS011;70150;45.582;10.178;2023-11-21T08:58:13;28.08;;;14.15;;
80758;SDS011;70150;45.582;10.178;2023-11-21T09:00:39;26.73;;;13.80;;
80758;SDS011;70150;45.582;10.178;2023-11-21T09:03:05;23.52;;;12.82;;
80758;SDS011;70150;45.582;10.178;2023-11-21T09:05:33;27.33;;;13.05;;
80758;SDS011;70150;45.582;10.178;2023-11-21T09:08:03;25.67;;;12.55;;
80758;SDS011;70150;45.582;10.178;2023-11-21T09:10:29;26.73;;;12.77;;
80758;SDS011;70150;45.582;10.178;2023-11-21T09:12:55;26.98;;;13.48;;
80758;SDS011;70150;45.582;10.178;2023-11-21T09:15:20;24.60;;;13.25;;
80758;SDS011;70150;45.582;10.178;2023-11-21T09:17:46;28.55;;;13.20;;
80758;SDS011;70150;45.582;10.178;2023-11-21T09:20:15;29.63;;;13.40;;
80758;SDS011;70150;45.582;10.178;2023-11-21T09:22:42;27.13;;;13.57;;
80758;SDS011;70150;45.582;10.178;2023-11-21T09:25:10;28.02;;;13.43;;
80758;SDS011;70150;45.582;10.178;2023-11-21T09:27:38;33.28;;;16.90;;
80758;SDS011;70150;45.582;10.178;2023-11-21T09:30:04;36.92;;;18.33;;
80758;SDS011;70150;45.582;10.178;2023-11-21T09:32:30;38.92;;;19.15;;
80758;SDS011;70150;45.582;10.178;2023-11-21T09:34:56;39.13;;;19.27;;
80758;SDS011;70150;45.582;10.178;2023-11-21T09:37:23;45.53;;;21.02;;
80758;SDS011;70150;45.582;10.178;2023-11-21T09:39:49;41.00;;;19.38;;
80758;SDS011;70150;45.582;10.178;2023-11-21T09:42:15;45.35;;;20.90;;
80758;SDS011;70150;45.582;10.178;2023-11-21T09:47:20;36.83;;;19.15;;
80758;SDS011;70150;45.582;10.178;2023-11-21T09:49:47;38.00;;;19.33;;
80758;SDS011;70150;45.582;10.178;2023-11-21T09:52:18;40.45;;;19.13;;
80758;SDS011;70150;45.582;10.178;2023-11-21T09:54:50;40.05;;;19.45;;
80758;SDS011;70150;45.582;10.178;2023-11-21T09:57:19;38.92;;;19.65;;
80758;SDS011;70150;45.582;10.178;2023-11-21T09:59:50;38.83;;;18.73;;
80758;SDS011;70150;45.582;10.178;2023-11-21T10:02:21;37.45;;;18.67;;
80758;SDS011;70150;45.582;10.178;2023-11-21T10:04:51;37.42;;;19.52;;
80758;SDS011;70150;45.582;10.178;2023-11-21T10:07:17;36.60;;;18.85;;
80758;SDS011;70150;45.582;10.178;2023-11-21T10:09:45;39.03;;;19.92;;
80758;SDS011;70150;45.582;10.178;2023-11-21T10:12:13;38.17;;;20.52;;
80758;SDS011;70150;45.582;10.178;2023-11-21T10:14:41;41.60;;;20.80;;
80758;SDS011;70150;45.582;10.178;2023-11-21T10:17:07;40.28;;;20.70;;
80758;SDS011;70150;45.582;10.178;2023-11-21T10:19:37;36.83;;;20.95;;
80758;SDS011;70150;45.582;10.178;2023-11-21T10:22:04;42.53;;;20.17;;
80758;SDS011;70150;45.582;10.178;2023-11-21T10:24:32;39.55;;;20.13;;
80758;SDS011;70150;45.582;10.178;2023-11-21T10:26:58;41.35;;;21.00;;
80758;SDS011;70150;45.582;10.178;2023-11-21T10:29:29;41.90;;;22.38;;
80758;SDS011;70150;45.582;10.178;2023-11-21T10:31:55;46.03;;;20.75;;
80758;SDS011;70150;45.582;10.178;2023-11-21T10:34:23;39.92;;;20.85;;
80758;SDS011;70150;45.582;10.178;2023-11-21T10:36:52;43.63;;;20.40;;
80758;SDS011;70150;45.582;10.178;2023-11-21T10:39:18;41.20;;;20.38;;
80758;SDS011;70150;45.582;10.178;2023-11-21T10:41:45;36.17;;;18.52;;
80758;SDS011;70150;45.582;10.178;2023-11-21T10:44:13;40.15;;;19.52;;
80758;SDS011;70150;45.582;10.178;2023-11-21T10:46:46;44.72;;;20.77;;
80758;SDS011;70150;45.582;10.178;2023-11-21T10:49:16;42.30;;;21.20;;
80758;SDS011;70150;45.582;10.178;2023-11-21T10:54:09;41.33;;;20.65;;
80758;SDS011;70150;45.582;10.178;2023-11-21T10:56:34;39.88;;;20.83;;
80758;SDS011;70150;45.582;10.178;2023-11-21T10:59:06;40.78;;;20.25;;
80758;SDS011;70150;45.582;10.178;2023-11-21T11:01:36;45.22;;;22.90;;
80758;SDS011;70150;45.582;10.178;2023-11-21T11:04:02;39.72;;;21.02;;
80758;SDS011;70150;45.582;10.178;2023-11-21T11:06:31;46.95;;;23.55;;
80758;SDS011;70150;45.582;10.178;2023-11-21T11:08:58;47.83;;;22.33;;
80758;SDS011;70150;45.582;10.178;2023-11-21T11:11:27;50.20;;;22.75;;
80758;SDS011;70150;45.582;10.178;2023-11-21T11:13:55;45.20;;;22.23;;
80758;SDS011;70150;45.582;10.178;2023-11-21T11:16:21;44.63;;;22.40;;
80758;SDS011;70150;45.582;10.178;2023-11-21T11:18:49;44.60;;;21.65;;
80758;SDS011;70150;45.582;10.178;2023-11-21T11:21:20;43.75;;;21.77;;
80758;SDS011;70150;45.582;10.178;2023-11-21T11:31:47;45.78;;;22.58;;
80758;SDS011;70150;45.582;10.178;2023-11-21T11:36:55;42.60;;;22.20;;
80758;SDS011;70150;45.582;10.178;2023-11-21T11:39:26;42.47;;;21.33;;
80758;SDS011;70150;45.582;10.178;2023-11-21T11:41:57;42.67;;;22.17;;
80758;SDS011;70150;45.582;10.178;2023-11-21T11:46:56;41.50;;;21.85;;
80758;SDS011;70150;45.582;10.178;2023-11-21T11:49:23;37.05;;;19.60;;
80758;SDS011;70150;45.582;10.178;2023-11-21T11:56:54;36.05;;;19.60;;
80758;SDS011;70150;45.582;10.178;2023-11-21T11:59:20;36.13;;;19.63;;
80758;SDS011;70150;45.582;10.178;2023-11-21T12:01:45;38.25;;;20.02;;
80758;SDS011;70150;45.582;10.178;2023-11-21T12:06:41;37.58;;;19.00;;
80758;SDS011;70150;45.582;10.178;2023-11-21T12:09:12;38.13;;;19.80;;
80758;SDS011;70150;45.582;10.178;2023-11-21T12:11:46;41.08;;;20.00;;
80758;SDS011;70150;45.582;10.178;2023-11-21T12:14:13;44.03;;;21.75;;
80758;SDS011;70150;45.582;10.178;2023-11-21T12:16:40;41.78;;;21.20;;
80758;SDS011;70150;45.582;10.178;2023-11-21T12:19:06;40.45;;;20.05;;
80758;SDS011;70150;45.582;10.178;2023-11-21T12:21:32;42.58;;;20.42;;
80758;SDS011;70150;45.582;10.178;2023-11-21T12:23:58;38.42;;;20.77;;
80758;SDS011;70150;45.582;10.178;2023-11-21T12:26:24;39.25;;;20.05;;
80758;SDS011;70150;45.582;10.178;2023-11-21T12:31:22;42.13;;;20.23;;
80758;SDS011;70150;45.582;10.178;2023-11-21T12:33:48;39.17;;;18.80;;
80758;SDS011;70150;45.582;10.178;2023-11-21T12:36:15;38.17;;;19.98;;
80758;SDS011;70150;45.582;10.178;2023-11-21T12:38:41;35.33;;;18.55;;
80758;SDS011;70150;45.582;10.178;2023-11-21T12:41:09;39.70;;;20.77;;
80758;SDS011;70150;45.582;10.178;2023-11-21T12:43:35;38.97;;;21.17;;
80758;SDS011;70150;45.582;10.178;2023-11-21T12:48:32;41.80;;;20.83;;
80758;SDS011;70150;45.582;10.178;2023-11-21T12:50:57;40.30;;;20.33;;
80758;SDS011;70150;45.582;10.178;2023-11-21T12:53:25;37.03;;;19.48;;
80758;SDS011;70150;45.582;10.178;2023-11-21T12:55:51;43.13;;;21.08;;
80758;SDS011;70150;45.582;10.178;2023-11-21T12:58:17;41.33;;;19.85;;
80758;SDS011;70150;45.582;10.178;2023-11-21T13:00:46;41.05;;;20.25;;
80758;SDS011;70150;45.582;10.178;2023-11-21T13:03:13;42.28;;;20.58;;
80758;SDS011;70150;45.582;10.178;2023-11-21T13:05:43;38.70;;;21.52;;
80758;SDS011;70150;45.582;10.178;2023-11-21T13:08:11;39.58;;;21.55;;
80758;SDS011;70150;45.582;10.178;2023-11-21T13:10:40;41.20;;;21.48;;
80758;SDS011;70150;45.582;10.178;2023-11-21T13:13:09;43.72;;;22.25;;
80758;SDS011;70150;45.582;10.178;2023-11-21T13:18:13;41.90;;;21.92;;
80758;SDS011;70150;45.582;10.178;2023-11-21T13:20:40;40.38;;;22.20;;
80758;SDS011;70150;45.582;10.178;2023-11-21T13:23:07;42.53;;;21.48;;
80758;SDS011;70150;45.582;10.178;2023-11-21T13:25:33;45.05;;;21.95;;
80758;SDS011;70150;45.582;10.178;2023-11-21T13:28:00;40.80;;;21.08;;
80758;SDS011;70150;45.582;10.178;2023-11-21T13:30:26;41.25;;;22.17;;
80758;SDS011;70150;45.582;10.178;2023-11-21T13:32:53;44.70;;;21.40;;
80758;SDS011;70150;45.582;10.178;2023-11-21T13:35:22;46.00;;;23.02;;
80758;SDS011;70150;45.582;10.178;2023-11-21T13:40:25;41.60;;;22.05;;
80758;SDS011;70150;45.582;10.178;2023-11-21T13:42:52;46.65;;;22.35;;
80758;SDS011;70150;45.582;10.178;2023-11-21T13:47:47;43.17;;;21.40;;
80758;SDS011;70150;45.582;10.178;2023-11-21T13:50:12;42.42;;;21.90;;
80758;SDS011;70150;45.582;10.178;2023-11-21T13:52:44;43.80;;;21.75;;
80758;SDS011;70150;45.582;10.178;2023-11-21T13:55:10;40.90;;;21.45;;
80758;SDS011;70150;45.582;10.178;2023-11-21T13:57:41;47.05;;;23.00;;
80758;SDS011;70150;45.582;10.178;2023-11-21T14:00:15;42.55;;;23.23;;
80758;SDS011;70150;45.582;10.178;2023-11-21T14:02:44;44.88;;;23.13;;
80758;SDS011;70150;45.582;10.178;2023-11-21T14:05:10;41.63;;;21.83;;
80758;SDS011;70150;45.582;10.178;2023-11-21T14:07:37;40.45;;;22.60;;
80758;SDS011;70150;45.582;10.178;2023-11-21T14:10:04;42.10;;;22.60;;
80758;SDS011;70150;45.582;10.178;2023-11-21T14:12:33;42.40;;;22.48;;
80758;SDS011;70150;45.582;10.178;2023-11-21T14:15:01;42.25;;;21.20;;
80758;SDS011;70150;45.582;10.178;2023-11-21T14:17:31;43.03;;;23.25;;
80758;SDS011;70150;45.582;10.178;2023-11-21T14:19:56;45.17;;;22.35;;
80758;SDS011;70150;45.582;10.178;2023-11-21T14:22:22;40.85;;;21.42;;
80758;SDS011;70150;45.582;10.178;2023-11-21T14:24:50;43.08;;;21.45;;
80758;SDS011;70150;45.582;10.178;2023-11-21T14:27:17;41.63;;;21.25;;
80758;SDS011;70150;45.582;10.178;2023-11-21T14:29:43;42.65;;;22.10;;
80758;SDS011;70150;45.582;10.178;2023-11-21T14:32:09;41.33;;;22.25;;
80758;SDS011;70150;45.582;10.178;2023-11-21T14:34:38;41.13;;;21.60;;
80758;SDS011;70150;45.582;10.178;2023-11-21T14:39:32;46.83;;;20.83;;
80758;SDS011;70150;45.582;10.178;2023-11-21T14:42:03;43.45;;;21.02;;
80758;SDS011;70150;45.582;10.178;2023-11-21T14:44:29;44.30;;;21.63;;
80758;SDS011;70150;45.582;10.178;2023-11-21T14:47:00;47.88;;;22.00;;
80758;SDS011;70150;45.582;10.178;2023-11-21T14:49:30;40.08;;;20.55;;
80758;SDS011;70150;45.582;10.178;2023-11-21T14:52:06;40.53;;;22.02;;
80758;SDS011;70150;45.582;10.178;2023-11-21T14:54:47;43.95;;;22.10;;
80758;SDS011;70150;45.582;10.178;2023-11-21T14:57:21;44.67;;;22.45;;
80758;SDS011;70150;45.582;10.178;2023-11-21T14:59:48;45.75;;;24.48;;
80758;SDS011;70150;45.582;10.178;2023-11-21T15:02:18;55.40;;;27.10;;
80758;SDS011;70150;45.582;10.178;2023-11-21T15:04:47;49.83;;;24.85;;
80758;SDS011;70150;45.582;10.178;2023-11-21T15:07:16;48.55;;;24.52;;
80758;SDS011;70150;45.582;10.178;2023-11-21T15:09:42;48.25;;;24.90;;